METAR AND TAF INFORMATION
METAR FOR PADK
ADDS - METARS form results

(0538 UTC 24 June 2018)
Data provider http://aviationweather.gov/adds/metars/
 
METAR text: PADK 240456Z AUTO 15014G29KT 10SM -RA BKN015 OVC075 09/07 A2977 RMK AO2 PK WND 16029/0447 SLP082 P0002 T00890072
Conditions at: PADK (ADAK NAS , AK, US) observed 0456 UTC 24 June 2018
Temperature: 8.9°C (48°F)
Dewpoint: 7.2°C (45°F) [RH = 89%]
Pressure (altimeter): 29.77 inches Hg (1008.2 mb)
[Sea-level pressure: 1008.2 mb]
Winds: from the SSE (150 degrees) at 16 MPH (14 knots; 7.3 m/s)
gusting to 33 MPH (29 knots; 15.1 m/s)
Visibility: 10 or more miles (16+ km)
Ceiling: 1500 feet AGL
Clouds: broken clouds at 1500 feet AGL
overcast cloud deck at 7500 feet AGL
Weather: -RA  (light rain)

 AIRPORT MAP

 RUNWAY INFORMATION
Runway 05 Runway length 7790 ft Runway width 200 ft
Runway elevation 17 ft Runway displaced threshold 0 ft Runway heading 61
Runway 23 Runway length 7790 ft Runway width 200 ft
Runway elevation 15 ft Runway displaced threshold 0 ft Runway heading 241
Runway 18 Runway length 7605 ft Runway width 200 ft
Runway elevation 6 ft Runway displaced threshold 0 ft Runway heading 185
Runway 36 Runway length 7605 ft Runway width 200 ft
Runway elevation 4 ft Runway displaced threshold 0 ft Runway heading 5

 AIRPORT FREQUENCIES

 AIRPORT NEAR NAVIGATION AIDS
Type NDB-DME Name Mount Moffett Frequency 530 KHZ
Type TACAN Name Adak Frequency 113000 KHZ



Powered by Virtual Airlines Manager [v2.6.2]